Time;durP1;ratioP1;P1;durP2;ratioP2;P2;SDS_P1;SDS_P2;PMS_P1;PMS_P2;Temp;Humidity;BMP_temperature;BMP_pressure;BME280_temperature;BME280_humidity;BME280_pressure;Samples;Min_cycle;Max_cycle;Signal;HPM_P1;HPM_P2
2022/06/05 00:02:37;;;;;;;12.70;6.15;;;;;;;15.42;100.00;101783.97;5104354;28;20026;-68
2022/06/05 00:05:12;;;;;;;8.23;5.65;;;;;;;15.34;100.00;101780.34;5102448;28;20050;-67
2022/06/05 00:07:52;;;;;;;10.13;6.43;;;;;;;15.39;100.00;101781.28;5113697;28;20020;-69
2022/06/05 00:10:23;;;;;;;16.65;6.78;;;;;;;15.41;100.00;101786.59;5114849;27;20072;-68
2022/06/05 00:13:00;;;;;;;10.25;5.72;;;;;;;15.29;100.00;101782.06;5113711;27;20470;-68
2022/06/05 00:15:27;;;;;;;15.23;6.78;;;;;;;15.28;100.00;101797.06;5116958;28;20024;-69
2022/06/05 00:17:52;;;;;;;12.70;6.53;;;;;;;15.30;100.00;101794.44;5096007;28;20031;-69
2022/06/05 00:20:18;;;;;;;15.77;6.65;;;;;;;15.38;100.00;101787.47;5115363;28;20114;-69
2022/06/05 00:22:44;;;;;;;10.60;6.50;;;;;;;15.37;100.00;101791.00;5111628;28;20024;-69
2022/06/05 00:25:10;;;;;;;9.65;6.00;;;;;;;15.40;100.00;101785.72;5114490;28;20379;-68
2022/06/05 00:27:46;;;;;;;13.27;6.25;;;;;;;15.37;100.00;101769.78;5101298;28;20028;-68
2022/06/05 00:30:26;;;;;;;11.80;6.43;;;;;;;15.39;100.00;101768.03;5096185;28;20027;-68
2022/06/05 00:33:19;;;;;;;11.52;6.40;;;;;;;15.31;100.00;101764.41;5087931;28;20479;-69
2022/06/05 00:35:54;;;;;;;11.95;6.95;;;;;;;15.28;100.00;101759.06;5096946;28;20026;-69
2022/06/05 00:38:37;;;;;;;9.77;6.10;;;;;;;15.34;100.00;101754.72;5108677;28;20088;-69
2022/06/05 00:41:24;;;;;;;10.10;6.65;;;;;;;15.31;100.00;101753.78;5098886;28;20051;-69
2022/06/05 00:43:54;;;;;;;9.27;6.75;;;;;;;15.30;100.00;101744.97;5111143;28;20027;-68
2022/06/05 00:46:23;;;;;;;13.05;6.63;;;;;;;15.23;100.00;101744.88;5104880;28;20024;-69
2022/06/05 00:48:49;;;;;;;8.77;6.47;;;;;;;15.22;100.00;101745.72;5100036;28;20086;-68
2022/06/05 00:51:15;;;;;;;13.02;6.50;;;;;;;15.26;100.00;101736.94;5100626;28;20964;-69
2022/06/05 00:53:40;;;;;;;12.00;7.05;;;;;;;15.14;100.00;101740.34;5096487;28;20031;-69
2022/06/05 00:56:10;;;;;;;11.50;7.03;;;;;;;15.17;100.00;101740.38;5092905;28;20431;-68
2022/06/05 00:58:35;;;;;;;10.43;6.97;;;;;;;15.18;100.00;101740.41;5102148;28;20020;-70
2022/06/05 01:01:02;;;;;;;8.48;5.95;;;;;;;15.26;100.00;101750.19;5103705;28;20051;-69
2022/06/05 01:03:27;;;;;;;16.77;6.60;;;;;;;15.28;100.00;101744.03;5102702;28;20092;-68
2022/06/05 01:05:52;;;;;;;11.20;6.40;;;;;;;15.21;100.00;101743.97;5109141;28;20043;-68
2022/06/05 01:08:18;;;;;;;9.23;6.40;;;;;;;15.26;100.00;101745.81;5102452;28;20023;-69
2022/06/05 01:10:58;;;;;;;12.02;6.78;;;;;;;15.25;100.00;101737.84;5093811;28;20024;-68
2022/06/05 01:13:29;;;;;;;11.05;6.93;;;;;;;15.10;100.00;101728.81;5089965;28;20027;-68
2022/06/05 01:16:03;;;;;;;10.55;6.53;;;;;;;15.12;100.00;101732.34;5088880;28;20349;-69
2022/06/05 01:18:34;;;;;;;10.15;6.95;;;;;;;15.15;100.00;101731.50;5101569;28;20019;-68
2022/06/05 01:21:37;;;;;;;15.30;6.03;;;;;;;15.25;100.00;101737.84;5113050;28;20451;-68
2022/06/05 01:24:19;;;;;;;9.52;6.30;;;;;;;15.17;100.00;101745.69;5089500;28;20036;-69
2022/06/05 01:26:48;;;;;;;12.45;7.13;;;;;;;15.15;100.00;101753.63;5091526;28;20024;-68
2022/06/05 01:29:23;;;;;;;10.27;6.47;;;;;;;15.11;100.00;101762.41;5090802;27;20430;-69
2022/06/05 01:31:54;;;;;;;12.88;6.78;;;;;;;15.17;100.00;101790.75;5087212;28;20021;-69
2022/06/05 01:34:22;;;;;;;11.13;6.22;;;;;;;15.07;100.00;101824.22;5099309;28;20418;-68
2022/06/05 01:37:02;;;;;;;10.95;5.78;;;;;;;15.08;100.00;101841.88;5088549;28;20450;-68
2022/06/05 01:39:35;;;;;;;12.13;5.95;;;;;;;15.15;100.00;101816.34;5093078;28;20105;-69
2022/06/05 01:42:07;;;;;;;12.18;6.50;;;;;;;15.23;100.00;101822.63;5091686;28;20012;-69
2022/06/05 01:44:38;;;;;;;12.82;6.47;;;;;;;15.26;100.00;101821.78;5083967;28;20424;-69
2022/06/05 01:47:20;;;;;;;15.07;6.53;;;;;;;15.28;100.00;101818.28;5092383;28;20020;-68
2022/06/05 01:49:57;;;;;;;12.57;6.45;;;;;;;15.30;100.00;101810.34;5093739;28;20052;-68
2022/06/05 01:52:52;;;;;;;12.32;7.13;;;;;;;15.18;100.00;101811.97;5099752;28;20474;-68
2022/06/05 01:55:36;;;;;;;10.43;6.70;;;;;;;15.27;100.00;101813.84;5082017;28;20086;-68
2022/06/05 01:58:06;;;;;;;10.55;6.60;;;;;;;15.30;100.00;101805.03;5102363;28;20096;-68
2022/06/05 02:00:31;;;;;;;14.27;6.68;;;;;;;15.30;100.00;101794.44;5083317;28;20048;-68
2022/06/05 02:03:17;;;;;;;12.25;6.32;;;;;;;15.28;100.00;101804.16;5100512;28;20051;-69
2022/06/05 02:05:51;;;;;;;12.07;6.15;;;;;;;15.32;100.00;101803.31;5085120;28;20530;-69
2022/06/05 02:08:25;;;;;;;12.30;7.03;;;;;;;15.31;100.00;101802.44;5101539;28;20028;-70
2022/06/05 02:11:21;;;;;;;13.85;8.13;;;;;;;15.13;100.00;101787.16;5096229;28;20032;-69
2022/06/05 02:13:48;;;;;;;16.00;7.93;;;;;;;15.17;100.00;101767.78;5092321;28;20051;-68
2022/06/05 02:16:14;;;;;;;13.93;8.50;;;;;;;15.03;100.00;101769.38;5101970;28;20026;-69
2022/06/05 02:18:39;;;;;;;15.50;7.95;;;;;;;14.95;100.00;101765.75;5091665;28;20387;-71
2022/06/05 02:21:05;;;;;;;15.77;9.10;;;;;;;14.84;100.00;101758.53;5099816;28;20016;-69
2022/06/05 02:23:36;;;;;;;13.82;7.75;;;;;;;14.86;100.00;101755.00;5096638;28;20085;-69
2022/06/05 02:26:03;;;;;;;15.02;8.77;;;;;;;14.87;100.00;101751.47;5092220;28;20026;-68
2022/06/05 02:28:29;;;;;;;15.98;9.00;;;;;;;14.73;100.00;101738.94;5090731;28;20104;-70
2022/06/05 02:31:23;;;;;;;14.38;8.75;;;;;;;14.67;100.00;101733.56;5089658;28;20436;-68
2022/06/05 02:34:03;;;;;;;17.77;9.27;;;;;;;14.55;100.00;101723.63;5091914;28;20132;-68
2022/06/05 02:36:31;;;;;;;18.25;8.43;;;;;;;14.59;100.00;101729.88;5095949;28;20485;-68
2022/06/05 02:39:05;;;;;;;14.25;9.63;;;;;;;14.60;100.00;101718.41;5091997;28;20486;-70
2022/06/05 02:41:41;;;;;;;14.88;8.77;;;;;;;14.45;100.00;101717.31;5103266;28;20383;-69
2022/06/05 02:44:29;;;;;;;15.13;9.30;;;;;;;14.48;100.00;101701.47;5100374;28;20509;-69
2022/06/05 02:47:21;;;;;;;17.83;9.57;;;;;;;14.55;100.00;101690.97;5093658;28;20082;-69
2022/06/05 02:50:03;;;;;;;22.50;9.77;;;;;;;14.59;100.00;101688.38;5096933;28;20040;-70
2022/06/05 02:52:31;;;;;;;17.85;9.82;;;;;;;14.33;100.00;101672.13;5091287;28;20024;-70
2022/06/05 02:55:04;;;;;;;20.38;11.10;;;;;;;14.32;100.00;101667.69;5084079;28;20115;-69
2022/06/05 02:57:30;;;;;;;21.10;11.00;;;;;;;14.23;100.00;101663.16;5091846;28;20073;-70
2022/06/05 02:59:56;;;;;;;17.63;11.52;;;;;;;14.32;100.00;101651.81;5091136;28;20042;-69
2022/06/05 03:05:06;;;;;;;17.98;11.38;;;;;;;14.24;100.00;101632.28;5099142;28;20093;-69
2022/06/05 03:07:32;;;;;;;23.17;11.05;;;;;;;14.11;100.00;101628.59;5091711;28;20024;-69
2022/06/05 03:09:58;;;;;;;20.33;11.55;;;;;;;14.03;100.00;101623.16;5099044;28;20528;-69
2022/06/05 03:12:23;;;;;;;17.42;11.88;;;;;;;14.15;100.00;101623.34;5094714;28;20020;-70
2022/06/05 03:14:49;;;;;;;21.33;11.60;;;;;;;14.11;100.00;101613.59;5092300;28;20028;-70
2022/06/05 03:17:14;;;;;;;22.10;12.07;;;;;;;14.06;100.00;101609.97;5084706;28;20031;-69
2022/06/05 03:19:41;;;;;;;19.63;11.95;;;;;;;14.01;100.00;101601.06;5090076;28;20024;-68
2022/06/05 03:22:07;;;;;;;22.10;11.77;;;;;;;13.95;100.00;101593.06;5099106;28;20020;-69
2022/06/05 03:24:32;;;;;;;20.83;10.82;;;;;;;13.83;100.00;101584.06;5092667;28;20224;-69
2022/06/05 03:26:58;;;;;;;20.55;12.50;;;;;;;13.80;100.00;101586.66;5094754;28;20032;-70
2022/06/05 03:29:23;;;;;;;21.63;13.10;;;;;;;13.86;100.00;101582.34;5090161;28;20055;-69
2022/06/05 03:31:49;;;;;;;19.52;12.82;;;;;;;13.83;100.00;101585.81;5087401;28;20060;-70
2022/06/05 03:34:16;;;;;;;21.38;13.00;;;;;;;13.67;100.00;101579.41;5092174;28;20045;-68
2022/06/05 03:36:42;;;;;;;22.13;12.57;;;;;;;13.72;100.00;101583.00;5097237;28;20077;-70
2022/06/05 03:39:07;;;;;;;21.70;13.00;;;;;;;13.59;100.00;101575.75;5091904;28;20422;-69
2022/06/05 03:41:32;;;;;;;28.17;14.13;;;;;;;13.64;100.00;101572.31;5088667;28;20062;-69
2022/06/05 03:43:58;;;;;;;17.10;13.02;;;;;;;13.60;100.00;101564.31;5097399;28;20024;-69
2022/06/05 03:46:24;;;;;;;28.13;13.20;;;;;;;13.57;100.00;101559.00;5095131;28;20034;-70
2022/06/05 03:48:49;;;;;;;23.05;13.70;;;;;;;13.46;100.00;101553.53;5095090;28;20071;-69
2022/06/05 03:51:19;;;;;;;28.02;14.07;;;;;;;13.57;100.00;101553.69;5085933;28;20039;-69
2022/06/05 03:53:45;;;;;;;18.20;12.73;;;;;;;13.59;100.00;101541.38;5091139;28;20024;-70
2022/06/05 03:56:14;;;;;;;24.77;13.88;;;;;;;13.59;100.00;101546.66;5084484;28;20451;-69
2022/06/05 03:58:41;;;;;;;21.05;13.25;;;;;;;13.44;100.00;101542.94;5092461;28;20089;-69
2022/06/05 04:01:08;;;;;;;24.02;13.38;;;;;;;13.45;100.00;101543.81;5090719;28;20368;-69
2022/06/05 04:03:34;;;;;;;27.00;14.55;;;;;;;13.42;100.00;101552.59;5091952;28;20059;-70
2022/06/05 04:05:59;;;;;;;24.52;13.77;;;;;;;13.37;100.00;101553.38;5089716;28;20562;-69
2022/06/05 04:08:25;;;;;;;27.67;14.05;;;;;;;13.35;100.00;101553.31;5095397;28;20098;-68
2022/06/05 04:10:50;;;;;;;21.38;13.48;;;;;;;13.30;100.00;101563.78;5101602;28;20023;-69
2022/06/05 04:13:15;;;;;;;25.20;13.60;;;;;;;13.29;100.00;101553.19;5099151;28;20104;-69
2022/06/05 04:15:41;;;;;;;23.95;13.77;;;;;;;13.35;100.00;101560.34;5104032;28;20085;-70
2022/06/05 04:18:08;;;;;;;22.35;12.80;;;;;;;13.35;100.00;101555.97;5098180;28;20020;-68
2022/06/05 04:20:36;;;;;;;22.00;12.80;;;;;;;13.32;100.00;101546.22;5094770;28;20475;-69
2022/06/05 04:23:02;;;;;;;21.42;13.43;;;;;;;13.38;100.00;101537.53;5088283;28;20024;-69
2022/06/05 04:25:28;;;;;;;22.67;13.45;;;;;;;13.38;100.00;101547.22;5093617;28;20259;-69
2022/06/05 04:27:55;;;;;;;22.52;13.52;;;;;;;13.30;100.00;101547.94;5094381;28;20038;-68
2022/06/05 04:30:20;;;;;;;24.55;13.25;;;;;;;13.34;100.00;101543.59;5093777;28;20536;-68
2022/06/05 04:32:46;;;;;;;21.67;13.15;;;;;;;13.35;100.00;101552.41;5094994;28;20031;-69
2022/06/05 04:35:11;;;;;;;20.02;13.50;;;;;;;13.26;100.00;101554.03;5098837;28;20020;-69
2022/06/05 04:37:36;;;;;;;18.98;12.98;;;;;;;13.21;100.00;101549.53;5091565;28;20049;-69
2022/06/05 04:40:03;;;;;;;22.33;12.57;;;;;;;13.24;100.00;101555.78;5097206;28;20058;-70
2022/06/05 04:42:30;;;;;;;27.42;13.73;;;;;;;13.12;100.00;101545.88;5098974;28;20532;-69
2022/06/05 04:44:56;;;;;;;27.65;15.48;;;;;;;13.10;100.00;101538.78;5092023;28;20395;-70
2022/06/05 04:47:21;;;;;;;23.23;14.52;;;;;;;13.19;100.00;101533.66;5092311;28;20030;-69
2022/06/05 04:49:46;;;;;;;20.27;13.60;;;;;;;13.11;100.00;101522.97;5085951;28;20134;-70
2022/06/05 04:52:12;;;;;;;24.08;14.38;;;;;;;13.07;100.00;101523.78;5101358;28;20499;-68
2022/06/05 04:54:37;;;;;;;23.38;13.57;;;;;;;13.05;100.00;101516.69;5092010;28;20042;-69
2022/06/05 04:57:03;;;;;;;25.80;14.23;;;;;;;13.09;100.00;101510.56;5091703;28;20110;-68
2022/06/05 04:59:29;;;;;;;23.88;14.45;;;;;;;13.14;100.00;101512.47;5092492;28;20108;-69
2022/06/05 05:01:54;;;;;;;26.83;15.15;;;;;;;13.13;100.00;101499.19;5092968;28;20103;-70
2022/06/05 05:04:20;;;;;;;28.60;14.40;;;;;;;13.10;100.00;101500.06;5099178;28;20028;-70
2022/06/05 05:06:45;;;;;;;33.85;16.05;;;;;;;13.01;100.00;101513.13;5094051;28;20107;-69
2022/06/05 05:09:11;;;;;;;26.77;15.40;;;;;;;13.04;100.00;101509.63;5086817;28;20081;-70
2022/06/05 05:11:37;;;;;;;23.65;14.98;;;;;;;13.07;100.00;101520.25;5090273;28;20090;-68
2022/06/05 05:14:03;;;;;;;26.67;14.68;;;;;;;13.13;100.00;101521.25;5103929;28;20035;-70
2022/06/05 05:16:29;;;;;;;29.25;16.80;;;;;;;13.18;100.00;101509.88;5094452;28;20024;-69
2022/06/05 05:18:55;;;;;;;27.17;15.48;;;;;;;13.16;100.00;101505.44;5100639;28;20094;-69
2022/06/05 05:21:23;;;;;;;25.63;14.93;;;;;;;13.09;100.00;101508.84;5097040;28;20077;-70
2022/06/05 05:23:49;;;;;;;24.48;14.15;;;;;;;13.18;100.00;101515.16;5089470;28;20031;-68
2022/06/05 05:26:22;;;;;;;27.50;14.93;;;;;;;13.25;100.00;101502.06;5095926;28;20047;-69
2022/06/05 05:28:47;;;;;;;25.40;15.07;;;;;;;13.20;100.00;101501.09;5093517;28;20035;-69
2022/06/05 05:31:20;;;;;;;35.47;15.90;;;;;;;13.22;100.00;101493.19;5093932;28;20468;-69
2022/06/05 05:33:49;;;;;;;21.00;14.70;;;;;;;13.19;100.00;101494.03;5088444;28;20035;-69
2022/06/05 05:36:19;;;;;;;26.38;15.55;;;;;;;13.22;100.00;101475.56;5088581;28;20293;-68
2022/06/05 05:44:13;;;;;;;27.85;16.10;;;;;;;13.23;100.00;101489.69;5092145;28;20062;-71
2022/06/05 05:46:39;;;;;;;25.52;15.25;;;;;;;13.32;100.00;101480.16;5095221;28;20452;-70
2022/06/05 05:49:05;;;;;;;22.98;15.45;;;;;;;13.29;100.00;101495.97;5098172;28;20044;-69
2022/06/05 05:51:30;;;;;;;27.45;16.40;;;;;;;13.31;100.00;101494.22;5095487;28;20395;-69
2022/06/05 05:53:55;;;;;;;27.67;16.80;;;;;;;13.38;100.00;101492.59;5096305;28;20463;-70
2022/06/05 05:56:21;;;;;;;23.88;15.55;;;;;;;13.36;100.00;101502.28;5093918;28;20455;-69
2022/06/05 05:58:46;;;;;;;29.73;15.70;;;;;;;13.40;100.00;101513.75;5094354;28;20364;-69
2022/06/05 06:01:12;;;;;;;26.50;16.10;;;;;;;13.44;100.00;101503.28;5090207;28;20024;-70
2022/06/05 06:03:37;;;;;;;25.55;15.65;;;;;;;13.46;100.00;101509.47;5090478;28;20031;-70
2022/06/05 06:06:03;;;;;;;26.73;14.52;;;;;;;13.60;100.00;101500.84;5100237;28;20058;-69
2022/06/05 06:08:30;;;;;;;26.33;15.80;;;;;;;13.53;100.00;101501.63;5095567;28;20031;-69
2022/06/05 06:10:55;;;;;;;23.33;14.60;;;;;;;13.54;100.00;101506.03;5091531;28;20039;-70
2022/06/05 06:13:21;;;;;;;27.92;14.05;;;;;;;13.57;100.00;101500.81;5089864;28;20024;-69
2022/06/05 06:15:47;;;;;;;28.10;15.57;;;;;;;13.55;100.00;101497.25;5096916;28;20727;-69
2022/06/05 06:18:12;;;;;;;27.05;15.45;;;;;;;13.53;100.00;101499.00;5102737;28;20061;-69
2022/06/05 06:20:38;;;;;;;27.98;15.57;;;;;;;13.57;100.00;101491.13;5100285;28;20116;-68
2022/06/05 06:23:03;;;;;;;24.77;15.98;;;;;;;13.47;100.00;101495.38;5086630;28;20047;-70
2022/06/05 06:25:28;;;;;;;29.55;15.63;;;;;;;13.49;100.00;101503.34;5090343;28;20042;-70
2022/06/05 06:27:54;;;;;;;22.27;14.35;;;;;;;13.48;100.00;101499.81;5090647;28;20024;-69
2022/06/05 06:30:19;;;;;;;26.58;15.65;;;;;;;13.53;100.00;101493.72;5088587;28;20023;-69
2022/06/05 06:32:45;;;;;;;23.15;15.95;;;;;;;13.65;100.00;101493.88;5085202;28;20059;-68
2022/06/05 06:35:10;;;;;;;29.83;16.45;;;;;;;13.64;100.00;101492.09;5092618;28;20042;-69
2022/06/05 06:37:36;;;;;;;25.08;15.80;;;;;;;13.63;100.00;101490.31;5098638;28;20024;-70
2022/06/05 06:40:01;;;;;;;26.98;16.15;;;;;;;13.55;100.00;101486.66;5094343;28;20032;-70
2022/06/05 06:42:26;;;;;;;24.42;15.02;;;;;;;13.56;100.00;101493.75;5097150;28;20059;-69
2022/06/05 06:44:52;;;;;;;24.33;15.20;;;;;;;13.55;100.00;101491.97;5092417;28;20027;-69
2022/06/05 06:47:17;;;;;;;30.33;15.63;;;;;;;13.55;100.00;101491.97;5088276;28;20377;-70
2022/06/05 06:49:43;;;;;;;26.08;15.25;;;;;;;13.56;100.00;101486.69;5098581;28;20059;-67
2022/06/05 06:52:08;;;;;;;22.77;15.38;;;;;;;13.63;100.00;101493.88;5075600;28;20098;-69
2022/06/05 06:54:33;;;;;;;21.98;14.90;;;;;;;13.66;100.00;101490.38;5088627;28;20032;-67
2022/06/05 06:56:59;;;;;;;24.05;15.38;;;;;;;13.58;100.00;101486.69;5091957;28;20039;-70
2022/06/05 06:59:24;;;;;;;25.67;16.20;;;;;;;13.69;100.00;101479.84;5092720;28;20089;-72
2022/06/05 07:01:50;;;;;;;20.83;15.73;;;;;;;13.71;100.00;101467.50;5093560;28;20036;-70
2022/06/05 07:04:17;;;;;;;26.02;15.32;;;;;;;13.76;100.00;101473.75;5092698;28;20069;-71
2022/06/05 07:06:43;;;;;;;25.83;15.95;;;;;;;13.75;100.00;101457.84;5091055;28;20452;-71
2022/06/05 07:09:08;;;;;;;27.20;15.15;;;;;;;13.85;100.00;101454.47;5089228;28;20024;-70
2022/06/05 07:11:34;;;;;;;28.77;16.95;;;;;;;13.84;100.00;101447.41;5093044;28;20027;-70
2022/06/05 07:13:59;;;;;;;25.17;15.82;;;;;;;13.87;100.00;101443.91;5093357;28;20023;-70
2022/06/05 07:16:25;;;;;;;25.25;15.70;;;;;;;13.92;100.00;101436.94;5092882;28;20020;-69
2022/06/05 07:18:50;;;;;;;25.35;16.08;;;;;;;13.98;100.00;101429.97;5080951;28;20049;-70
2022/06/05 07:21:22;;;;;;;23.50;16.17;;;;;;;14.03;100.00;101424.72;5091276;28;20016;-71
2022/06/05 07:23:48;;;;;;;22.65;15.55;;;;;;;14.01;100.00;101426.44;5087699;28;20066;-70
2022/06/05 07:26:17;;;;;;;24.52;15.50;;;;;;;14.07;100.00;101415.06;5093929;28;20380;-69
2022/06/05 07:28:42;;;;;;;24.88;15.65;;;;;;;14.12;100.00;101413.31;5097237;28;20364;-71
2022/06/05 07:31:08;;;;;;;22.35;15.95;;;;;;;14.23;100.00;101414.34;5090524;28;20064;-70
2022/06/05 07:33:35;;;;;;;22.83;15.27;;;;;;;14.30;100.00;101410.00;5082226;28;20063;-71
2022/06/05 07:36:03;;;;;;;27.00;16.15;;;;;;;14.32;100.00;101408.25;5090074;28;20056;-70
2022/06/05 07:38:29;;;;;;;25.35;15.02;;;;;;;14.40;100.00;101406.56;5092309;28;20389;-71
2022/06/05 07:40:55;;;;;;;21.90;15.57;;;;;;;14.43;100.00;101395.13;5088290;28;20023;-69
2022/06/05 07:43:21;;;;;;;25.70;15.65;;;;;;;14.52;100.00;101394.31;5077589;28;20450;-70
2022/06/05 07:45:47;;;;;;;28.20;16.48;;;;;;;14.60;100.00;101390.88;5084372;28;20073;-70
2022/06/05 07:48:13;;;;;;;30.70;16.60;;;;;;;14.69;100.00;101392.75;5097026;28;20104;-69
2022/06/05 07:54:26;;;;;;;23.83;16.10;;;;;;;14.77;100.00;101395.44;5094064;28;20402;-69
2022/06/05 07:56:07;;;;;;;22.50;15.45;;;;;;;15.07;100.00;101384.19;5097724;28;20128;-69
2022/06/05 07:58:32;;;;;;;21.42;14.73;;;;;;;15.16;100.00;101375.41;5089820;28;20128;-71
2022/06/05 08:00:58;;;;;;;25.52;15.43;;;;;;;15.28;100.00;101378.13;5088185;28;20039;-68
2022/06/05 08:03:23;;;;;;;27.23;14.55;;;;;;;15.38;100.00;101368.44;5086491;28;20039;-70
2022/06/05 08:05:48;;;;;;;19.63;13.38;;;;;;;15.43;100.00;101366.72;5087836;28;20024;-69
2022/06/05 08:08:14;;;;;;;23.20;14.40;;;;;;;15.44;100.00;101362.31;5091956;28;20016;-69
2022/06/05 08:10:39;;;;;;;20.80;15.10;;;;;;;15.54;100.00;101355.28;5083085;28;20481;-69
2022/06/05 08:13:05;;;;;;;22.80;14.40;;;;;;;15.63;100.00;101347.38;5081978;28;20060;-70
2022/06/05 08:15:30;;;;;;;18.42;14.75;;;;;;;15.73;100.00;101348.28;5087671;28;20038;-69
2022/06/05 08:17:55;;;;;;;18.88;13.90;;;;;;;15.79;100.00;101338.56;5088215;28;20016;-69
2022/06/05 08:20:21;;;;;;;22.10;14.32;;;;;;;15.82;100.00;101343.91;5082567;28;20063;-69
2022/06/05 08:22:47;;;;;;;15.85;13.43;;;;;;;15.96;100.00;101340.41;5083079;28;20017;-68
2022/06/05 08:25:13;;;;;;;19.33;14.32;;;;;;;15.95;100.00;101342.19;5096151;28;20032;-70
2022/06/05 08:27:39;;;;;;;16.98;13.43;;;;;;;16.02;100.00;101340.44;5094437;28;20028;-68
2022/06/05 08:30:05;;;;;;;16.13;13.45;;;;;;;16.13;100.00;101348.41;5096199;28;20032;-67
2022/06/05 08:32:31;;;;;;;19.38;13.50;;;;;;;16.19;100.00;101343.09;5092764;28;20031;-69
2022/06/05 08:34:56;;;;;;;19.15;13.85;;;;;;;16.33;100.00;101348.41;5096227;28;20036;-68
2022/06/05 08:43:31;;;;;;;19.95;13.88;;;;;;;16.90;100.00;101358.19;5091400;28;20085;-69
2022/06/05 08:46:15;;;;;;;19.77;13.10;;;;;;;17.22;100.00;101359.91;5097009;28;20040;-70
2022/06/05 08:49:03;;;;;;;16.95;12.98;;;;;;;17.40;100.00;101354.50;5096153;28;20036;-68
2022/06/05 08:51:57;;;;;;;19.80;14.40;;;;;;;17.62;100.00;101365.06;5098496;28;20036;-72
2022/06/05 08:54:45;;;;;;;20.60;13.43;;;;;;;17.86;100.00;101354.34;5092926;28;20024;-71
2022/06/05 08:57:18;;;;;;;15.27;12.80;;;;;;;17.97;100.00;101356.06;5095493;28;20054;-70
2022/06/05 09:00:02;;;;;;;16.67;12.32;;;;;;;18.23;100.00;101347.91;5088799;28;20028;-71
2022/06/05 09:02:52;;;;;;;15.18;12.10;;;;;;;18.49;100.00;101345.03;5094973;28;20105;-71
2022/06/05 09:05:23;;;;;;;15.55;12.30;;;;;;;18.64;100.00;101353.81;5092116;28;20060;-71
2022/06/05 09:07:52;;;;;;;16.90;12.65;;;;;;;18.82;100.00;101364.28;5090180;28;20023;-70
2022/06/05 09:10:24;;;;;;;15.07;11.30;;;;;;;18.92;100.00;101365.13;5094941;28;20024;-69
2022/06/05 09:13:05;;;;;;;12.38;10.50;;;;;;;19.01;100.00;101372.16;5087193;28;20047;-67
2022/06/05 09:15:40;;;;;;;12.63;10.60;;;;;;;19.06;100.00;101378.34;5091446;28;20069;-69
2022/06/05 09:18:15;;;;;;;14.88;11.52;;;;;;;19.11;100.00;101381.81;5091982;28;20024;-69
2022/06/05 09:20:46;;;;;;;14.35;12.27;;;;;;;18.83;100.00;101376.72;5088808;28;20020;-70
2022/06/05 09:23:22;;;;;;;14.70;10.82;;;;;;;18.79;100.00;101369.66;5090364;28;20418;-70
2022/06/05 09:26:00;;;;;;;19.30;11.95;;;;;;;18.85;100.00;101368.72;5086056;28;20046;-70
2022/06/05 09:28:50;;;;;;;14.05;11.35;;;;;;;18.91;100.00;101358.03;5086076;28;20020;-68
2022/06/05 09:31:44;;;;;;;13.65;12.00;;;;;;;18.97;100.00;101362.41;5085685;28;20494;-68
2022/06/05 09:34:23;;;;;;;15.27;11.57;;;;;;;18.95;100.00;101364.22;5093082;28;20035;-68
2022/06/05 09:37:02;;;;;;;17.67;11.68;;;;;;;18.73;100.00;101361.72;5090908;28;20167;-68
2022/06/05 09:39:42;;;;;;;14.77;12.15;;;;;;;18.74;100.00;101366.16;5090674;28;20139;-68
2022/06/05 09:42:41;;;;;;;19.75;12.23;;;;;;;18.74;100.00;101359.94;5076139;28;20024;-69
2022/06/05 09:45:27;;;;;;;15.35;12.40;;;;;;;18.80;100.00;101359.88;5091500;28;20479;-69
2022/06/05 09:48:05;;;;;;;16.45;12.00;;;;;;;18.80;100.00;101355.44;5086667;28;20086;-71
2022/06/05 09:50:31;;;;;;;19.52;14.02;;;;;;;18.82;100.00;101358.97;5085673;28;20043;-71
2022/06/05 09:52:57;;;;;;;21.33;12.75;;;;;;;18.79;100.00;101364.34;5083549;28;20055;-69
2022/06/05 09:55:50;;;;;;;14.48;12.20;;;;;;;18.93;100.00;101350.88;5092029;28;20100;-70
2022/06/05 09:58:34;;;;;;;15.70;12.57;;;;;;;18.95;100.00;101353.53;5092890;28;20054;-69
2022/06/05 10:01:18;;;;;;;;;;;;;;;18.95;100.00;101354.44;5097083;28;20173;-69
2022/06/05 10:03:43;;;;;;;18.55;11.95;;;;;;;19.01;100.00;101358.81;5105428;28;19912;-69
2022/06/05 10:06:17;;;;;;;18.27;12.70;;;;;;;19.06;100.00;101348.09;5114936;28;20481;-69
2022/06/05 10:08:50;;;;;;;21.40;14.38;;;;;;;19.16;100.00;101347.97;5100900;28;20023;-70
2022/06/05 10:11:48;;;;;;;16.38;12.65;;;;;;;19.12;100.00;101340.03;5091735;28;20891;-70
2022/06/05 10:14:53;;;;;;;15.20;12.60;;;;;;;19.23;100.00;101345.25;5079380;28;20527;-67
2022/06/05 10:17:26;;;;;;;17.75;12.30;;;;;;;19.23;100.00;101342.59;5091979;28;20037;-68
2022/06/05 10:20:13;;;;;;;18.17;12.93;;;;;;;19.29;100.00;101338.06;5091419;28;20044;-68
2022/06/05 10:22:39;;;;;;;17.15;12.45;;;;;;;19.34;100.00;101330.91;5092318;28;20035;-68
2022/06/05 10:25:35;;;;;;;17.23;12.88;;;;;;;19.43;100.00;101335.22;5098359;28;20471;-68
2022/06/05 10:28:08;;;;;;;19.13;12.43;;;;;;;19.49;100.00;101328.91;5095269;28;20551;-69
2022/06/05 10:30:52;;;;;;;15.63;11.90;;;;;;;19.51;100.00;101341.34;5095807;28;20024;-68
2022/06/05 10:33:30;;;;;;;16.27;12.27;;;;;;;19.45;100.00;101330.75;5103898;28;20027;-69
2022/06/05 10:36:10;;;;;;;20.35;12.38;;;;;;;19.45;100.00;101317.41;5087337;28;20024;-69
2022/06/05 10:38:42;;;;;;;18.55;13.25;;;;;;;19.56;100.00;101309.28;5092585;28;20023;-69
2022/06/05 10:41:42;;;;;;;18.48;12.48;;;;;;;19.58;100.00;101307.44;5090813;28;20029;-68
2022/06/05 10:44:11;;;;;;;14.60;12.10;;;;;;;19.57;100.00;101305.66;5088362;28;20028;-68
2022/06/05 10:46:43;;;;;;;18.05;12.93;;;;;;;19.59;100.00;101300.31;5082917;28;20056;-68
2022/06/05 10:49:32;;;;;;;14.70;12.20;;;;;;;19.44;100.00;101301.41;5084687;28;20111;-68
2022/06/05 10:52:36;;;;;;;19.10;12.13;;;;;;;19.26;100.00;101303.44;5084557;28;20028;-69
2022/06/05 10:55:34;;;;;;;15.45;12.40;;;;;;;19.28;100.00;101306.94;5088708;28;20097;-68
2022/06/05 10:58:23;;;;;;;18.45;13.40;;;;;;;19.29;100.00;101298.03;5094034;28;20487;-69
2022/06/05 11:00:48;;;;;;;17.30;12.43;;;;;;;19.29;100.00;101289.13;5099205;28;20107;-69
2022/06/05 11:03:27;;;;;;;22.48;13.27;;;;;;;19.18;100.00;101287.50;5087662;28;20768;-69
2022/06/05 11:06:15;;;;;;;18.30;12.52;;;;;;;19.15;100.00;101295.53;5087597;28;20356;-68
2022/06/05 11:09:15;;;;;;;20.02;13.98;;;;;;;19.12;100.00;101294.69;5086876;28;21639;-68
2022/06/05 11:14:59;;;;;;;21.50;13.52;;;;;;;19.32;100.00;101308.66;5082618;28;20569;-68
2022/06/05 11:17:33;;;;;;;27.20;13.27;;;;;;;19.24;100.00;101283.88;5086274;28;20032;-68
2022/06/05 11:20:15;;;;;;;18.08;12.23;;;;;;;19.27;100.00;101289.16;5092732;28;20023;-68
2022/06/05 11:23:01;;;;;;;17.73;12.40;;;;;;;19.33;100.00;101285.53;5086001;28;20039;-67
2022/06/05 11:25:53;;;;;;;16.38;14.40;;;;;;;19.35;100.00;101283.72;5083401;28;20221;-68
2022/06/05 11:28:36;;;;;;;15.90;13.32;;;;;;;19.36;100.00;101280.16;5079866;28;20039;-68
2022/06/05 11:31:08;;;;;;;19.23;14.25;;;;;;;19.26;100.00;101270.50;5085703;28;20024;-68
2022/06/05 11:33:57;;;;;;;20.60;15.68;;;;;;;19.10;100.00;101276.03;5088778;28;20059;-68
2022/06/05 11:36:40;;;;;;;21.33;14.25;;;;;;;19.11;100.00;101269.78;5084749;28;20499;-68
2022/06/05 11:39:21;;;;;;;22.23;13.88;;;;;;;19.08;100.00;101276.97;5081450;28;20443;-68
2022/06/05 11:42:08;;;;;;;17.85;13.80;;;;;;;19.17;100.00;101269.72;5093320;28;20028;-68
2022/06/05 11:44:41;;;;;;;21.75;14.80;;;;;;;19.26;100.00;101276.75;5096037;28;20031;-68
2022/06/05 11:47:25;;;;;;;19.33;13.10;;;;;;;19.33;100.00;101277.50;5091010;28;20395;-68